createdAt,value
2023-05-15T00:01:59.430Z,6.55
2023-05-15T00:04:26.659Z,5.88
2023-05-15T00:06:53.377Z,7.13
2023-05-15T00:09:19.909Z,6.85
2023-05-15T00:11:46.349Z,7.43
2023-05-15T00:14:12.702Z,7.07
2023-05-15T00:16:39.300Z,7.22
2023-05-15T00:19:05.832Z,7.20
2023-05-15T00:21:32.381Z,6.80
2023-05-15T00:23:59.076Z,6.95
2023-05-15T00:26:25.555Z,7.18
2023-05-15T00:28:52.038Z,7.15
2023-05-15T00:31:18.452Z,5.82
2023-05-15T00:33:44.936Z,5.85
2023-05-15T00:36:11.567Z,6.80
2023-05-15T00:38:38.029Z,6.15
2023-05-15T00:41:07.014Z,6.95
2023-05-15T00:43:34.916Z,6.53
2023-05-15T00:46:02.574Z,6.07
2023-05-15T00:48:29.218Z,6.00
2023-05-15T00:50:57.731Z,6.38
2023-05-15T00:53:24.439Z,6.15
2023-05-15T00:55:52.379Z,7.38
2023-05-15T00:58:21.301Z,6.90
2023-05-15T01:00:49.838Z,5.97
2023-05-15T01:03:17.249Z,6.65
2023-05-15T01:05:45.018Z,7.30
2023-05-15T01:08:26.530Z,6.57
2023-05-15T01:10:54.145Z,6.90
2023-05-15T01:13:22.438Z,7.07
2023-05-15T01:15:49.598Z,6.85
2023-05-15T01:18:16.619Z,6.38
2023-05-15T01:21:01.305Z,5.78
2023-05-15T01:23:46.431Z,7.25
2023-05-15T01:26:50.652Z,6.93
2023-05-15T01:32:02.188Z,7.05
2023-05-15T01:34:40.555Z,7.00
2023-05-15T01:37:09.744Z,6.95
2023-05-15T01:39:38.958Z,6.05
2023-05-15T01:42:11.032Z,6.50
2023-05-15T01:44:42.471Z,8.40
2023-05-15T01:47:14.405Z,6.78
2023-05-15T01:49:44.766Z,7.78
2023-05-15T01:52:33.652Z,6.45
2023-05-15T01:55:03.449Z,7.30
2023-05-15T01:57:31.667Z,6.72
2023-05-15T01:59:59.318Z,7.40
2023-05-15T02:02:27.729Z,6.47
2023-05-15T02:04:55.364Z,7.82
2023-05-15T02:07:22.398Z,7.95
2023-05-15T02:09:54.077Z,8.13
2023-05-15T02:12:21.840Z,8.10
2023-05-15T02:14:50.114Z,8.82
2023-05-15T02:17:16.714Z,8.75
2023-05-15T02:19:43.739Z,9.25
2023-05-15T02:22:10.712Z,8.52
2023-05-15T02:24:37.176Z,8.32
2023-05-15T02:27:19.018Z,9.30
2023-05-15T02:30:07.366Z,9.02
2023-05-15T02:32:33.780Z,9.65
2023-05-15T02:35:22.000Z,10.25
2023-05-15T02:37:53.933Z,9.35
2023-05-15T02:40:23.395Z,8.77
2023-05-15T02:42:52.441Z,9.20
2023-05-15T02:47:46.542Z,8.75
2023-05-15T02:50:13.144Z,9.88
2023-05-15T02:52:39.694Z,9.32
2023-05-15T02:55:06.643Z,9.50
2023-05-15T02:57:34.169Z,9.32
2023-05-15T03:00:00.853Z,10.25
2023-05-15T03:02:27.515Z,9.27
2023-05-15T03:04:54.450Z,10.07
2023-05-15T03:07:21.049Z,9.40
2023-05-15T03:09:47.415Z,10.55
2023-05-15T03:12:13.858Z,8.80
2023-05-15T03:14:40.371Z,9.18
2023-05-15T03:17:07.213Z,9.43
2023-05-15T03:19:33.699Z,11.40
2023-05-15T03:22:00.116Z,9.60
2023-05-15T03:24:26.623Z,10.00
2023-05-15T03:26:53.047Z,10.77
2023-05-15T03:29:19.784Z,10.75
2023-05-15T03:31:46.322Z,10.35
2023-05-15T03:34:12.808Z,9.52
2023-05-15T03:36:39.382Z,10.60
2023-05-15T03:39:05.830Z,10.38
2023-05-15T03:41:32.258Z,10.02
2023-05-15T03:43:58.617Z,10.40
2023-05-15T03:46:25.179Z,10.48
2023-05-15T03:48:51.574Z,10.75
2023-05-15T03:51:17.997Z,10.95
2023-05-15T03:53:44.397Z,10.70
2023-05-15T03:56:10.876Z,10.15
2023-05-15T03:58:37.231Z,10.18
2023-05-15T04:01:03.733Z,9.32
2023-05-15T04:03:30.222Z,10.02
2023-05-15T04:05:56.693Z,10.48
2023-05-15T04:08:23.451Z,10.63
2023-05-15T04:10:49.845Z,9.20
2023-05-15T04:13:16.287Z,9.63
2023-05-15T04:15:43.137Z,10.50
2023-05-15T04:18:09.660Z,9.13
2023-05-15T04:20:36.114Z,9.07
2023-05-15T04:23:04.070Z,9.20
2023-05-15T04:25:30.825Z,9.02
2023-05-15T04:27:57.330Z,8.50
2023-05-15T04:30:24.102Z,8.73
2023-05-15T04:32:51.970Z,9.07
2023-05-15T04:35:19.050Z,8.23
2023-05-15T04:37:45.820Z,8.98
2023-05-15T04:40:17.224Z,9.35
2023-05-15T04:42:43.829Z,10.35
2023-05-15T04:45:10.868Z,9.63
2023-05-15T04:47:37.848Z,9.00
2023-05-15T04:50:04.618Z,8.88
2023-05-15T04:52:32.150Z,9.80
2023-05-15T04:54:58.553Z,9.73
2023-05-15T04:57:25.730Z,9.75
2023-05-15T04:59:52.196Z,8.73
2023-05-15T05:02:22.648Z,8.50
2023-05-15T05:04:50.170Z,9.48
2023-05-15T05:07:17.142Z,10.40
2023-05-15T05:09:46.358Z,9.77
2023-05-15T05:12:12.761Z,9.43
2023-05-15T05:14:40.700Z,10.23
2023-05-15T05:17:08.181Z,9.68
2023-05-15T05:19:34.639Z,9.63
2023-05-15T05:22:04.637Z,9.93
2023-05-15T05:24:37.631Z,9.57
2023-05-15T05:27:04.627Z,9.77
2023-05-15T05:29:31.243Z,9.18
2023-05-15T05:31:58.059Z,8.65
2023-05-15T05:34:24.539Z,10.02
2023-05-15T05:36:51.393Z,9.68
2023-05-15T05:39:19.139Z,9.45
2023-05-15T05:41:45.602Z,9.48
2023-05-15T05:44:12.045Z,8.77
2023-05-15T05:46:39.589Z,9.18
2023-05-15T05:49:06.004Z,8.68
2023-05-15T05:51:32.496Z,10.13
2023-05-15T05:53:58.880Z,8.85
2023-05-15T05:56:26.583Z,9.65
2023-05-15T05:58:53.150Z,8.55
2023-05-15T06:01:19.727Z,9.05
2023-05-15T06:03:46.647Z,7.97
2023-05-15T06:06:13.154Z,9.27
2023-05-15T06:08:39.804Z,9.70
2023-05-15T06:11:06.354Z,10.43
2023-05-15T06:13:32.707Z,9.43
2023-05-15T06:15:59.211Z,11.05
2023-05-15T06:18:25.619Z,9.60
2023-05-15T06:20:53.323Z,10.50
2023-05-15T06:23:19.749Z,10.90
2023-05-15T06:25:46.537Z,9.13
2023-05-15T06:28:12.916Z,10.43
2023-05-15T06:30:41.551Z,8.77
2023-05-15T06:33:07.981Z,10.07
2023-05-15T06:35:34.487Z,10.85
2023-05-15T06:38:01.843Z,10.60
2023-05-15T06:40:28.357Z,10.07
2023-05-15T06:42:54.873Z,10.63
2023-05-15T06:45:21.345Z,11.55
2023-05-15T06:47:47.843Z,11.02
2023-05-15T06:50:14.468Z,10.35
2023-05-15T06:52:40.931Z,9.88
2023-05-15T06:55:07.948Z,9.88
2023-05-15T06:57:34.856Z,9.95
2023-05-15T07:00:01.227Z,9.68
2023-05-15T07:02:27.735Z,9.85
2023-05-15T07:04:54.437Z,9.48
2023-05-15T07:07:20.892Z,8.95
2023-05-15T07:09:48.576Z,8.93
2023-05-15T07:12:15.507Z,8.80
2023-05-15T07:14:41.958Z,10.10
2023-05-15T07:17:08.494Z,8.73
2023-05-15T07:19:35.228Z,10.15
2023-05-15T07:22:03.309Z,9.88
2023-05-15T07:24:30.034Z,9.77
2023-05-15T07:26:58.618Z,10.00
2023-05-15T07:29:25.803Z,9.45
2023-05-15T07:31:52.773Z,9.88
2023-05-15T07:34:19.249Z,10.40
2023-05-15T07:36:45.833Z,10.25
2023-05-15T07:39:12.351Z,10.70
2023-05-15T07:41:38.947Z,9.80
2023-05-15T07:44:06.006Z,9.95
2023-05-15T07:46:33.705Z,10.40
2023-05-15T07:49:00.548Z,11.02
2023-05-15T07:51:26.958Z,11.33
2023-05-15T07:53:53.367Z,9.82
2023-05-15T07:56:19.841Z,10.88
2023-05-15T07:58:46.410Z,10.52
2023-05-15T08:01:12.857Z,11.60
2023-05-15T08:03:42.117Z,11.13
2023-05-15T08:06:08.685Z,10.43
2023-05-15T08:08:35.085Z,11.18
2023-05-15T08:11:01.550Z,10.30
2023-05-15T08:13:28.798Z,11.60
2023-05-15T08:15:55.460Z,9.43
2023-05-15T08:18:21.906Z,8.45
2023-05-15T08:20:49.165Z,9.77
2023-05-15T08:23:15.902Z,9.38
2023-05-15T08:25:42.365Z,10.10
2023-05-15T08:28:11.010Z,9.57
2023-05-15T08:33:04.014Z,9.50
2023-05-15T08:35:30.549Z,9.13
2023-05-15T08:37:58.347Z,9.73
2023-05-15T08:43:06.801Z,9.90
2023-05-15T08:45:33.447Z,9.55
2023-05-15T08:48:02.054Z,9.38
2023-05-15T08:50:31.830Z,9.63
2023-05-15T08:53:01.513Z,9.55
2023-05-15T08:55:28.976Z,9.63
2023-05-15T08:57:55.989Z,8.85
2023-05-15T09:00:23.820Z,9.45
2023-05-15T09:02:50.715Z,9.43
2023-05-15T09:05:17.275Z,9.73
2023-05-15T09:07:45.061Z,9.50
2023-05-15T09:10:13.548Z,10.10
2023-05-15T09:12:43.480Z,9.77
2023-05-15T09:15:10.971Z,8.98
2023-05-15T09:17:38.153Z,8.68
2023-05-15T09:20:11.560Z,9.35
2023-05-15T09:22:37.979Z,9.05
2023-05-15T09:25:04.731Z,8.82
2023-05-15T09:27:41.112Z,7.95
2023-05-15T09:30:11.406Z,8.88
2023-05-15T09:32:38.451Z,8.18
2023-05-15T09:35:05.348Z,7.90
2023-05-15T09:37:34.136Z,9.20
2023-05-15T09:40:11.468Z,8.50
2023-05-15T09:42:38.790Z,9.05
2023-05-15T09:45:06.482Z,9.25
2023-05-15T09:47:34.145Z,9.38
2023-05-15T09:50:00.827Z,10.15
2023-05-15T09:52:27.853Z,8.93
2023-05-15T09:54:54.593Z,9.27
2023-05-15T09:57:22.412Z,9.65
2023-05-15T09:59:49.842Z,9.68
2023-05-15T10:02:24.547Z,9.45
2023-05-15T10:04:56.035Z,10.75
2023-05-15T10:07:33.132Z,11.77
2023-05-15T10:10:02.155Z,12.32
2023-05-15T10:12:31.872Z,10.90
2023-05-15T10:14:59.624Z,13.25
2023-05-15T10:17:28.488Z,13.07
2023-05-15T10:19:59.166Z,13.82
2023-05-15T10:22:29.434Z,13.68
2023-05-15T10:25:23.885Z,13.80
2023-05-15T10:27:51.467Z,15.00
2023-05-15T10:30:19.967Z,12.55
2023-05-15T10:32:48.564Z,15.02
2023-05-15T10:35:16.598Z,13.15
2023-05-15T10:37:45.332Z,14.18
2023-05-15T10:42:43.353Z,14.25
2023-05-15T10:45:10.734Z,13.70
2023-05-15T10:47:39.155Z,14.48
2023-05-15T10:50:06.664Z,14.95
2023-05-15T10:52:33.692Z,17.42
2023-05-15T10:55:00.547Z,14.55
2023-05-15T10:57:29.514Z,15.98
2023-05-15T10:59:56.491Z,14.43
2023-05-15T11:02:27.262Z,15.88
2023-05-15T11:04:57.685Z,14.10
2023-05-15T11:07:24.791Z,13.77
2023-05-15T11:09:55.583Z,14.05
2023-05-15T11:12:23.020Z,13.32
2023-05-15T11:14:52.417Z,13.20
2023-05-15T11:17:18.874Z,13.00
2023-05-15T11:19:51.155Z,12.70
2023-05-15T11:22:22.913Z,12.75
2023-05-15T11:24:59.854Z,12.02
2023-05-15T11:27:32.527Z,12.18
2023-05-15T11:30:07.238Z,11.63
2023-05-15T11:32:55.639Z,11.82
2023-05-15T11:35:43.924Z,10.57
2023-05-15T11:38:10.396Z,10.00
2023-05-15T11:40:58.495Z,11.15
2023-05-15T11:43:26.759Z,10.60
2023-05-15T11:46:10.516Z,11.05
2023-05-15T11:48:47.522Z,10.65
2023-05-15T11:51:22.399Z,10.73
2023-05-15T11:53:53.756Z,10.65
2023-05-15T11:56:22.912Z,10.05
2023-05-15T11:58:55.297Z,10.32
2023-05-15T12:01:22.230Z,8.57
2023-05-15T12:03:49.889Z,8.80
2023-05-15T12:06:18.571Z,9.15
2023-05-15T12:08:51.233Z,9.43
2023-05-15T12:11:22.214Z,8.40
2023-05-15T12:13:52.801Z,8.82
2023-05-15T12:16:24.853Z,10.02
2023-05-15T12:18:51.641Z,8.05
2023-05-15T12:21:18.348Z,9.07
2023-05-15T12:24:06.847Z,8.60
2023-05-15T12:26:34.187Z,8.77
2023-05-15T12:29:00.836Z,8.35
2023-05-15T12:31:27.393Z,8.93
2023-05-15T12:33:54.112Z,8.32
2023-05-15T12:36:21.970Z,8.45
2023-05-15T12:38:49.003Z,8.70
2023-05-15T12:41:15.650Z,8.13
2023-05-15T12:43:42.384Z,8.52
2023-05-15T12:46:09.624Z,7.57
2023-05-15T12:48:36.444Z,7.65
2023-05-15T12:51:08.014Z,8.07
2023-05-15T12:53:35.215Z,6.95
2023-05-15T12:56:02.151Z,8.20
2023-05-15T12:58:28.645Z,7.35
2023-05-15T13:00:56.836Z,8.00
2023-05-15T13:03:25.047Z,6.57
2023-05-15T13:05:52.230Z,7.10
2023-05-15T13:08:19.159Z,7.47
2023-05-15T13:10:47.666Z,5.90
2023-05-15T13:13:15.158Z,6.30
2023-05-15T13:15:45.717Z,5.93
2023-05-15T13:18:14.840Z,6.60
2023-05-15T13:20:46.272Z,6.60
2023-05-15T13:23:16.333Z,6.30
2023-05-15T13:25:43.703Z,6.82
2023-05-15T13:28:10.959Z,6.20
2023-05-15T13:30:44.320Z,6.90
2023-05-15T13:33:12.850Z,6.30
2023-05-15T13:38:07.610Z,5.32
2023-05-15T13:40:37.402Z,6.70
2023-05-15T13:43:03.977Z,6.20
2023-05-15T13:45:30.353Z,6.72
2023-05-15T13:47:56.796Z,6.38
2023-05-15T13:50:23.533Z,7.15
2023-05-15T13:52:50.187Z,6.72
2023-05-15T13:55:16.579Z,6.72
2023-05-15T13:57:43.734Z,6.85
2023-05-15T14:00:14.837Z,6.93
2023-05-15T14:02:43.198Z,7.50
2023-05-15T14:05:11.381Z,7.05
2023-05-15T14:07:39.537Z,7.75
2023-05-15T14:10:06.630Z,8.30
2023-05-15T14:12:33.674Z,7.28
2023-05-15T14:15:00.911Z,6.72
2023-05-15T14:17:28.243Z,6.85
2023-05-15T14:19:54.754Z,6.85
2023-05-15T14:22:24.624Z,6.75
2023-05-15T14:24:52.386Z,5.90
2023-05-15T14:27:19.153Z,6.90
2023-05-15T14:29:45.901Z,5.25
2023-05-15T14:32:12.470Z,5.68
2023-05-15T14:34:39.119Z,5.63
2023-05-15T14:37:05.885Z,5.45
2023-05-15T14:39:32.809Z,5.68
2023-05-15T14:41:59.250Z,5.18
2023-05-15T14:44:26.093Z,6.55
2023-05-15T14:47:13.156Z,5.35
2023-05-15T14:49:42.952Z,5.07
2023-05-15T14:52:10.550Z,5.07
2023-05-15T14:54:38.786Z,5.32
2023-05-15T14:57:05.543Z,5.65
2023-05-15T14:59:31.963Z,5.43
2023-05-15T15:01:58.564Z,6.05
2023-05-15T15:04:26.669Z,5.78
2023-05-15T15:06:56.719Z,5.40
2023-05-15T15:09:23.748Z,6.07
2023-05-15T15:11:50.283Z,5.53
2023-05-15T15:14:17.086Z,5.65
2023-05-15T15:16:44.489Z,5.80
2023-05-15T15:19:11.146Z,5.88
2023-05-15T15:21:37.706Z,5.72
2023-05-15T15:24:04.193Z,5.13
2023-05-15T15:26:30.865Z,5.57
2023-05-15T15:29:00.958Z,5.05
2023-05-15T15:31:30.858Z,5.60
2023-05-15T15:33:58.004Z,5.72
2023-05-15T15:36:24.983Z,5.63
2023-05-15T15:38:51.462Z,5.30
2023-05-15T15:41:18.245Z,4.38
2023-05-15T15:43:44.658Z,3.53
2023-05-15T15:46:11.189Z,3.85
2023-05-15T15:48:37.654Z,3.63
2023-05-15T15:51:04.334Z,3.92
2023-05-15T15:53:33.953Z,3.72
2023-05-15T15:56:01.268Z,3.38
2023-05-15T15:58:27.719Z,3.95
2023-05-15T16:00:54.174Z,4.05
2023-05-15T16:03:20.881Z,4.00
2023-05-15T16:05:47.384Z,3.78
2023-05-15T16:08:13.827Z,3.60
2023-05-15T16:10:40.705Z,3.95
2023-05-15T16:13:07.168Z,3.92
2023-05-15T16:15:33.569Z,3.45
2023-05-15T16:18:01.050Z,3.33
2023-05-15T16:20:27.713Z,3.08
2023-05-15T16:22:54.300Z,3.30
2023-05-15T16:25:20.771Z,3.25
2023-05-15T16:27:47.295Z,3.13
2023-05-15T16:30:13.995Z,3.17
2023-05-15T16:32:40.626Z,3.20
2023-05-15T16:35:07.688Z,2.80
2023-05-15T16:37:34.145Z,3.20
2023-05-15T16:40:00.751Z,2.63
2023-05-15T16:42:27.215Z,2.63
2023-05-15T16:44:53.601Z,2.33
2023-05-15T16:47:21.165Z,3.08
2023-05-15T16:49:49.771Z,2.17
2023-05-15T16:52:16.918Z,2.20
2023-05-15T16:54:43.381Z,1.42
2023-05-15T16:57:09.867Z,1.60
2023-05-15T16:59:36.229Z,1.60
2023-05-15T17:02:02.659Z,1.42
2023-05-15T17:04:32.875Z,1.40
2023-05-15T17:06:59.799Z,1.50
2023-05-15T17:09:26.257Z,1.25
2023-05-15T17:11:52.664Z,1.20
2023-05-15T17:14:19.147Z,1.42
2023-05-15T17:16:45.800Z,1.20
2023-05-15T17:19:12.512Z,0.80
2023-05-15T17:21:39.087Z,0.80
2023-05-15T17:24:05.634Z,1.35
2023-05-15T17:26:32.056Z,1.10
2023-05-15T17:28:58.538Z,1.20
2023-05-15T17:31:25.052Z,1.00
2023-05-15T17:33:51.496Z,0.80
2023-05-15T17:36:18.288Z,0.85
2023-05-15T17:38:44.688Z,0.93
2023-05-15T17:41:11.216Z,1.20
2023-05-15T17:43:37.791Z,1.33
2023-05-15T17:46:05.686Z,0.93
2023-05-15T17:48:32.707Z,0.85
2023-05-15T17:50:59.100Z,1.20
2023-05-15T17:53:25.782Z,1.27
2023-05-15T17:55:52.328Z,1.40
2023-05-15T17:58:18.872Z,1.52
2023-05-15T18:00:45.933Z,1.35
2023-05-15T18:03:12.425Z,1.52
2023-05-15T18:05:38.875Z,1.20
2023-05-15T18:08:06.757Z,1.17
2023-05-15T18:10:33.287Z,1.77
2023-05-15T18:12:59.759Z,1.58
2023-05-15T18:15:26.391Z,1.58
2023-05-15T18:17:53.125Z,1.63
2023-05-15T18:20:19.562Z,1.17
2023-05-15T18:22:46.085Z,1.42
2023-05-15T18:25:12.625Z,1.35
2023-05-15T18:27:39.308Z,1.40
2023-05-15T18:30:06.689Z,1.20
2023-05-15T18:32:33.468Z,1.33
2023-05-15T18:34:59.959Z,1.17
2023-05-15T18:37:26.605Z,1.50
2023-05-15T18:39:56.478Z,1.13
2023-05-15T18:42:23.414Z,0.77
2023-05-15T18:44:49.792Z,0.85
2023-05-15T18:47:16.299Z,1.02
2023-05-15T18:49:42.928Z,0.90
2023-05-15T18:52:09.450Z,0.80
2023-05-15T18:54:36.088Z,0.68
2023-05-15T18:57:02.646Z,0.88
2023-05-15T18:59:29.176Z,0.95
2023-05-15T19:01:55.613Z,0.68
2023-05-15T19:04:22.060Z,0.52
2023-05-15T19:06:50.263Z,0.80
2023-05-15T19:09:20.090Z,0.90
2023-05-15T19:11:49.212Z,0.73
2023-05-15T19:14:17.626Z,0.60
2023-05-15T19:16:45.090Z,0.68
2023-05-15T19:19:11.998Z,0.60
2023-05-15T19:21:38.909Z,0.52
2023-05-15T19:24:06.284Z,0.30
2023-05-15T19:26:32.750Z,0.40
2023-05-15T19:28:59.297Z,0.20
2023-05-15T19:31:31.519Z,0.40
2023-05-15T19:33:59.160Z,0.20
2023-05-15T19:36:27.121Z,0.43
2023-05-15T19:38:53.688Z,0.20
2023-05-15T19:41:20.041Z,0.30
2023-05-15T19:43:47.021Z,0.20
2023-05-15T19:46:13.907Z,0.43
2023-05-15T19:48:40.557Z,0.50
2023-05-15T19:51:07.191Z,0.50
2023-05-15T19:53:34.078Z,0.20
2023-05-15T19:56:00.739Z,0.43
2023-05-15T19:58:27.175Z,0.35
2023-05-15T20:00:54.274Z,0.60
2023-05-15T20:03:21.671Z,0.40
2023-05-15T20:05:48.188Z,0.30
2023-05-15T20:08:16.843Z,0.47
2023-05-15T20:10:43.728Z,0.60
2023-05-15T20:13:10.546Z,0.40
2023-05-15T20:15:39.912Z,0.50
2023-05-15T20:18:07.389Z,0.73
2023-05-15T20:20:34.109Z,0.60
2023-05-15T20:23:00.556Z,0.50
2023-05-15T20:25:28.867Z,0.30
2023-05-15T20:27:57.056Z,0.90
2023-05-15T20:30:24.206Z,0.50
2023-05-15T20:32:51.118Z,0.57
2023-05-15T20:35:17.814Z,0.75
2023-05-15T20:37:44.336Z,0.47
2023-05-15T20:40:12.690Z,0.65
2023-05-15T20:42:42.335Z,0.70
2023-05-15T20:45:09.522Z,0.80
2023-05-15T20:47:36.193Z,0.40
2023-05-15T20:50:02.727Z,0.70
2023-05-15T20:52:29.275Z,0.68
2023-05-15T20:54:55.757Z,0.52
2023-05-15T20:57:22.361Z,0.80
2023-05-15T20:59:48.822Z,1.17
2023-05-15T21:02:15.255Z,0.60
2023-05-15T21:04:41.852Z,0.45
2023-05-15T21:07:08.623Z,0.50
2023-05-15T21:09:35.032Z,0.50
2023-05-15T21:12:01.673Z,0.63
2023-05-15T21:14:28.138Z,1.00
2023-05-15T21:16:54.647Z,0.90
2023-05-15T21:19:21.856Z,0.75
2023-05-15T21:21:48.311Z,0.85
2023-05-15T21:24:14.806Z,0.85
2023-05-15T21:26:41.202Z,0.70
2023-05-15T21:29:08.057Z,1.05
2023-05-15T21:31:34.563Z,0.90
2023-05-15T21:34:01.005Z,1.13
2023-05-15T21:36:27.463Z,0.70
2023-05-15T21:38:53.859Z,1.08
2023-05-15T21:41:20.683Z,1.20
2023-05-15T21:43:47.097Z,1.02
2023-05-15T21:46:13.638Z,0.98
2023-05-15T21:48:40.093Z,1.08
2023-05-15T21:51:06.501Z,1.10
2023-05-15T21:53:32.914Z,0.77
2023-05-15T21:56:00.696Z,1.00
2023-05-15T21:58:27.478Z,0.73
2023-05-15T22:00:54.000Z,1.00
2023-05-15T22:03:21.418Z,1.20
2023-05-15T22:05:50.068Z,1.05
2023-05-15T22:08:16.732Z,0.77
2023-05-15T22:10:43.226Z,0.85
2023-05-15T22:13:09.944Z,0.80
2023-05-15T22:15:36.959Z,1.15
2023-05-15T22:18:05.542Z,0.75
2023-05-15T22:20:32.771Z,1.08
2023-05-15T22:22:59.448Z,1.25
2023-05-15T22:25:26.047Z,1.33
2023-05-15T22:27:52.570Z,0.80
2023-05-15T22:30:19.299Z,0.95
2023-05-15T22:32:46.006Z,0.98
2023-05-15T22:35:13.198Z,0.90
2023-05-15T22:37:42.483Z,1.08
2023-05-15T22:40:12.356Z,0.85
2023-05-15T22:42:38.935Z,0.80
2023-05-15T22:45:05.967Z,0.90
2023-05-15T22:47:32.867Z,1.02
2023-05-15T22:49:59.502Z,1.08
2023-05-15T22:52:26.031Z,1.33
2023-05-15T22:54:52.527Z,1.10
2023-05-15T22:57:19.104Z,0.98
2023-05-15T22:59:45.475Z,1.00
2023-05-15T23:02:11.861Z,1.20
2023-05-15T23:04:40.563Z,0.93
2023-05-15T23:07:07.106Z,1.10
2023-05-15T23:09:33.584Z,0.80
2023-05-15T23:12:00.722Z,1.00
2023-05-15T23:14:27.240Z,1.05
2023-05-15T23:16:53.844Z,0.98
2023-05-15T23:19:20.370Z,1.25
2023-05-15T23:21:47.151Z,0.88
2023-05-15T23:24:13.626Z,1.23
2023-05-15T23:26:40.072Z,0.80
2023-05-15T23:29:06.491Z,0.82
2023-05-15T23:31:33.675Z,0.88
2023-05-15T23:34:00.153Z,0.75
2023-05-15T23:36:26.654Z,0.57
2023-05-15T23:38:53.199Z,1.00
2023-05-15T23:41:19.641Z,0.50
2023-05-15T23:43:46.061Z,1.00
2023-05-15T23:46:12.699Z,1.00
2023-05-15T23:48:39.593Z,0.60
2023-05-15T23:51:06.174Z,1.20
2023-05-15T23:53:33.001Z,1.00
2023-05-15T23:55:59.523Z,1.02
2023-05-15T23:58:26.598Z,1.00
